Time;durP1;ratioP1;P1;durP2;ratioP2;P2;SDS_P1;SDS_P2;PMS_P1;PMS_P2;Temp;Humidity;BMP_temperature;BMP_pressure;BME280_temperature;BME280_humidity;BME280_pressure;Samples;Min_cycle;Max_cycle;Signal;HPM_P1;HPM_P2
2023/05/20 00:00:40;;;;;;;6.13;1.73;;;9.50;99.90;;;;;;5077949;28;20043;-85
2023/05/20 00:03:06;;;;;;;6.53;1.80;;;9.50;99.90;;;;;;5093646;28;20032;-86
2023/05/20 00:05:31;;;;;;;3.38;1.52;;;9.60;99.90;;;;;;5093670;28;20503;-85
2023/05/20 00:07:58;;;;;;;3.92;1.27;;;10.00;99.90;;;;;;5093981;28;20127;-84
2023/05/20 00:10:24;;;;;;;5.32;1.70;;;9.60;99.90;;;;;;5075862;28;20044;-89
2023/05/20 00:12:49;;;;;;;7.15;1.70;;;9.60;99.90;;;;;;5092876;28;20543;-86
2023/05/20 00:15:15;;;;;;;4.75;2.10;;;9.60;99.90;;;;;;5093745;28;20070;-87
2023/05/20 00:17:41;;;;;;;3.55;1.92;;;9.60;99.90;;;;;;5093515;28;20621;-85
2023/05/20 00:20:07;;;;;;;3.05;1.30;;;10.10;99.90;;;;;;5093569;28;20511;-86
2023/05/20 00:22:32;;;;;;;4.15;1.30;;;9.50;99.90;;;;;;5093561;28;20044;-87
2023/05/20 00:24:58;;;;;;;2.45;1.70;;;9.50;99.90;;;;;;5093581;28;20374;-86
2023/05/20 00:27:24;;;;;;;4.07;1.90;;;9.40;99.90;;;;;;5085433;28;20476;-85
2023/05/20 00:29:50;;;;;;;4.78;1.50;;;10.20;99.90;;;;;;5073093;28;20083;-86
2023/05/20 00:32:15;;;;;;;5.18;1.38;;;9.60;99.90;;;;;;5072842;28;20480;-86
2023/05/20 00:34:42;;;;;;;5.75;1.50;;;9.70;99.90;;;;;;5073927;28;20048;-83
2023/05/20 00:37:07;;;;;;;5.50;2.10;;;9.60;99.90;;;;;;5072898;28;20033;-86
2023/05/20 00:39:33;;;;;;;3.70;1.60;;;9.50;99.90;;;;;;5054845;28;20048;-82
2023/05/20 00:42:01;;;;;;;4.32;1.52;;;10.00;99.90;;;;;;5073109;28;20116;-85
2023/05/20 00:44:27;;;;;;;6.47;1.80;;;9.50;99.90;;;;;;5072924;28;20052;-83
2023/05/20 00:46:54;;;;;;;4.80;1.55;;;9.50;99.90;;;;;;5072728;28;20115;-84
2023/05/20 00:49:21;;;;;;;4.82;1.55;;;9.50;99.90;;;;;;5072739;28;20044;-80
2023/05/20 00:51:46;;;;;;;7.13;1.92;;;9.50;99.90;;;;;;5087167;28;20039;-83
2023/05/20 00:54:12;;;;;;;3.30;1.77;;;9.40;99.90;;;;;;5074498;28;20047;-83
2023/05/20 00:56:38;;;;;;;4.20;1.40;;;9.60;99.90;;;;;;5073773;28;20058;-87
2023/05/20 00:59:04;;;;;;;3.85;1.60;;;9.40;99.90;;;;;;5073293;28;20079;-85
2023/05/20 01:01:30;;;;;;;3.28;1.38;;;9.50;99.90;;;;;;5092914;28;20163;-84
2023/05/20 01:03:55;;;;;;;5.68;1.50;;;9.40;99.90;;;;;;5093176;28;20441;-87
2023/05/20 01:06:21;;;;;;;5.70;1.50;;;9.40;99.90;;;;;;5093317;28;20072;-83
2023/05/20 01:08:47;;;;;;;3.60;1.85;;;9.30;99.90;;;;;;5096525;28;20048;-83
2023/05/20 01:11:30;;;;;;;4.65;1.50;;;9.60;99.90;;;;;;5069574;28;20484;-83
2023/05/20 01:14:00;;;;;;;3.22;1.50;;;9.30;99.90;;;;;;5077552;28;20047;-84
2023/05/20 01:16:26;;;;;;;5.82;1.63;;;9.30;99.90;;;;;;5086037;28;20562;-82
2023/05/20 01:18:54;;;;;;;4.60;2.15;;;9.20;99.90;;;;;;5078767;28;20053;-87
2023/05/20 01:21:21;;;;;;;4.28;2.03;;;9.30;99.90;;;;;;5088938;28;20040;-85
2023/05/20 01:23:47;;;;;;;4.40;2.33;;;9.30;99.90;;;;;;5075206;28;20044;-85
2023/05/20 01:26:13;;;;;;;3.83;2.17;;;9.90;99.90;;;;;;5100665;28;20051;-87
2023/05/20 01:28:42;;;;;;;7.43;2.40;;;9.20;99.90;;;;;;5092795;28;20052;-85
2023/05/20 01:31:32;;;;;;;3.72;1.55;;;9.40;99.90;;;;;;5074678;28;20052;-86
2023/05/20 01:33:59;;;;;;;4.43;1.90;;;9.30;99.90;;;;;;5092026;28;20063;-87
2023/05/20 01:36:26;;;;;;;6.80;2.00;;;9.10;99.90;;;;;;5092693;28;20132;-82
2023/05/20 01:38:54;;;;;;;5.07;2.10;;;9.10;99.90;;;;;;5092551;28;20433;-89
2023/05/20 01:41:20;;;;;;;7.55;1.90;;;9.40;99.90;;;;;;5092399;28;20056;-86
2023/05/20 01:43:46;;;;;;;3.42;1.40;;;9.80;99.90;;;;;;5091653;28;20044;-87
2023/05/20 01:46:13;;;;;;;5.68;2.22;;;9.10;99.90;;;;;;5092527;28;20040;-87
2023/05/20 01:48:39;;;;;;;5.28;1.60;;;9.20;99.90;;;;;;5072714;28;20044;-87
2023/05/20 01:51:05;;;;;;;3.22;1.80;;;9.20;99.90;;;;;;5073906;28;20051;-86
2023/05/20 01:53:30;;;;;;;6.07;1.63;;;9.20;99.90;;;;;;5092402;28;20115;-87
2023/05/20 01:55:56;;;;;;;4.60;1.85;;;9.60;99.90;;;;;;5092587;28;20069;-87
2023/05/20 01:58:22;;;;;;;7.75;2.13;;;9.10;99.90;;;;;;5092325;28;20040;-84
2023/05/20 02:00:47;;;;;;;5.40;1.92;;;9.10;99.90;;;;;;5074221;28;20043;-87
2023/05/20 02:03:13;;;;;;;6.07;2.00;;;9.10;99.90;;;;;;5092472;28;20396;-88
2023/05/20 02:05:39;;;;;;;3.28;1.58;;;9.10;99.90;;;;;;5092283;28;20068;-89
2023/05/20 02:08:04;;;;;;;4.40;1.63;;;9.50;99.90;;;;;;5091932;28;20036;-87
2023/05/20 02:10:30;;;;;;;2.20;1.33;;;9.00;99.90;;;;;;5096093;28;20089;-86
2023/05/20 02:12:56;;;;;;;3.75;2.10;;;9.00;99.90;;;;;;5095810;28;20084;-86
2023/05/20 02:15:21;;;;;;;4.75;1.40;;;9.00;99.90;;;;;;5084665;28;20047;-83
2023/05/20 02:17:48;;;;;;;5.63;1.80;;;9.40;99.90;;;;;;5075777;28;20443;-86
2023/05/20 02:20:13;;;;;;;2.78;1.60;;;9.00;99.90;;;;;;5075492;28;20048;-84
2023/05/20 02:22:39;;;;;;;4.15;1.48;;;9.00;99.90;;;;;;5075413;28;20052;-83
2023/05/20 02:25:05;;;;;;;4.05;1.92;;;9.00;99.90;;;;;;5077373;28;20407;-86
2023/05/20 02:27:31;;;;;;;2.70;1.30;;;9.00;99.90;;;;;;5095617;28;20054;-85
2023/05/20 02:29:57;;;;;;;4.95;2.08;;;9.00;99.90;;;;;;5075527;28;20131;-84
2023/05/20 02:32:26;;;;;;;4.78;1.65;;;8.90;99.90;;;;;;5057387;28;20477;-83
2023/05/20 02:34:55;;;;;;;3.10;1.52;;;8.90;99.90;;;;;;5075272;28;20354;-83
2023/05/20 02:37:21;;;;;;;4.25;1.33;;;8.90;99.90;;;;;;5057450;28;20083;-81
2023/05/20 02:39:47;;;;;;;3.15;1.20;;;9.00;99.90;;;;;;5075164;28;20523;-84
2023/05/20 02:42:13;;;;;;;2.85;1.40;;;8.90;99.90;;;;;;5077151;28;20065;-85
2023/05/20 02:44:38;;;;;;;3.17;1.30;;;8.90;99.90;;;;;;5075227;28;20432;-83
2023/05/20 02:47:04;;;;;;;4.45;1.58;;;9.30;99.90;;;;;;5074772;28;20086;-83
2023/05/20 02:49:30;;;;;;;2.95;1.20;;;8.90;99.90;;;;;;5075178;28;20103;-84
2023/05/20 02:51:55;;;;;;;4.65;1.20;;;8.90;99.90;;;;;;5074956;28;20045;-83
2023/05/20 02:54:21;;;;;;;4.60;1.30;;;8.70;99.90;;;;;;5074882;28;20570;-86
2023/05/20 02:56:47;;;;;;;2.78;1.25;;;8.80;99.90;;;;;;5094921;28;20446;-82
2023/05/20 02:59:12;;;;;;;3.05;1.38;;;8.70;99.90;;;;;;5094673;28;20043;-85
2023/05/20 03:01:39;;;;;;;4.43;1.23;;;8.70;99.90;;;;;;5093934;28;20100;-81
2023/05/20 03:04:05;;;;;;;2.25;1.08;;;9.20;99.90;;;;;;5094421;28;20048;-82
2023/05/20 03:06:31;;;;;;;2.45;1.08;;;8.70;99.90;;;;;;5077157;28;20516;-83
2023/05/20 03:08:57;;;;;;;3.55;1.23;;;9.20;99.90;;;;;;5094386;28;20042;-84
2023/05/20 03:11:23;;;;;;;5.18;1.10;;;8.60;99.90;;;;;;5094910;28;20036;-84
2023/05/20 03:13:48;;;;;;;2.75;1.08;;;8.60;99.90;;;;;;5084349;28;20377;-84
2023/05/20 03:16:15;;;;;;;5.07;1.30;;;8.50;99.90;;;;;;5074814;28;20049;-82
2023/05/20 03:18:41;;;;;;;3.10;1.13;;;8.50;99.90;;;;;;5074479;28;20052;-82
2023/05/20 03:21:07;;;;;;;3.70;1.10;;;8.40;99.90;;;;;;5074840;28;20045;-82
2023/05/20 03:23:34;;;;;;;3.17;1.27;;;9.20;99.90;;;;;;5074550;28;20047;-81
2023/05/20 03:26:00;;;;;;;1.85;0.95;;;8.50;99.90;;;;;;5074476;28;20392;-82
2023/05/20 03:28:26;;;;;;;1.10;0.80;;;8.40;99.90;;;;;;5074013;28;20048;-82
2023/05/20 03:30:51;;;;;;;3.05;1.05;;;8.50;99.90;;;;;;5082252;28;20445;-81
2023/05/20 03:33:17;;;;;;;2.38;1.23;;;8.40;99.90;;;;;;5076418;28;20040;-81
2023/05/20 03:35:43;;;;;;;1.77;1.02;;;8.60;99.90;;;;;;5094205;28;20048;-83
2023/05/20 03:38:09;;;;;;;1.88;1.00;;;8.50;99.90;;;;;;5093927;28;20388;-85
2023/05/20 03:40:34;;;;;;;9.15;1.33;;;8.50;99.90;;;;;;5079999;28;20088;-83
2023/05/20 03:43:00;;;;;;;1.08;0.73;;;8.40;99.90;;;;;;5083366;28;20056;-85
2023/05/20 03:45:26;;;;;;;1.23;1.00;;;9.00;99.90;;;;;;5074417;28;20443;-83
2023/05/20 03:47:51;;;;;;;1.63;0.82;;;8.50;99.90;;;;;;5056873;28;20045;-86
2023/05/20 03:50:17;;;;;;;1.58;0.80;;;8.60;99.90;;;;;;5040206;28;20084;-84
2023/05/20 03:52:43;;;;;;;3.35;1.08;;;8.60;99.90;;;;;;5074545;28;20041;-83
2023/05/20 03:55:09;;;;;;;2.08;0.80;;;8.70;99.90;;;;;;5083352;28;20040;-84
2023/05/20 03:57:35;;;;;;;3.17;1.10;;;9.30;99.90;;;;;;5099446;28;20050;-81
2023/05/20 04:00:04;;;;;;;1.23;0.70;;;9.30;99.90;;;;;;5099297;28;20059;-82
2023/05/20 04:02:30;;;;;;;1.88;0.80;;;9.40;99.90;;;;;;5078535;28;20052;-88
2023/05/20 04:04:56;;;;;;;3.17;0.88;;;9.40;99.90;;;;;;5075857;28;20040;-84
2023/05/20 04:07:22;;;;;;;3.20;1.05;;;9.10;99.90;;;;;;5094065;28;20067;-87
2023/05/20 04:09:48;;;;;;;2.75;0.73;;;9.20;99.90;;;;;;5080318;28;20052;-86
2023/05/20 04:12:13;;;;;;;2.60;0.82;;;9.30;99.90;;;;;;5073777;28;20040;-90
2023/05/20 04:14:40;;;;;;;3.28;0.77;;;9.40;99.90;;;;;;5073745;28;20040;-86
2023/05/20 04:17:06;;;;;;;2.17;0.90;;;9.50;99.90;;;;;;5076361;28;20541;-86
2023/05/20 04:19:33;;;;;;;2.25;0.88;;;9.70;99.90;;;;;;5092511;28;20055;-84
2023/05/20 04:22:00;;;;;;;3.45;1.00;;;9.80;99.90;;;;;;5079656;28;20484;-84
2023/05/20 04:24:26;;;;;;;2.25;0.80;;;9.80;99.90;;;;;;5073116;28;20033;-84
2023/05/20 04:26:52;;;;;;;3.33;0.75;;;9.80;99.90;;;;;;5073294;28;20493;-84
2023/05/20 04:29:18;;;;;;;2.63;0.60;;;9.90;99.90;;;;;;5073097;28;20055;-84
2023/05/20 04:31:45;;;;;;;1.33;0.50;;;9.90;99.90;;;;;;5072256;28;20047;-88
2023/05/20 04:34:12;;;;;;;1.90;0.60;;;9.90;99.90;;;;;;5073404;28;20040;-83
2023/05/20 04:36:38;;;;;;;2.03;0.60;;;10.00;99.90;;;;;;5073030;28;20078;-80
2023/05/20 04:39:04;;;;;;;2.15;0.57;;;9.90;99.90;;;;;;5073007;28;20091;-82
2023/05/20 04:41:30;;;;;;;2.42;0.70;;;10.00;99.90;;;;;;5073038;28;20080;-86
2023/05/20 04:44:00;;;;;;;0.70;0.50;;;10.10;99.90;;;;;;5072869;28;20041;-85
2023/05/20 04:46:26;;;;;;;0.80;0.40;;;10.10;99.90;;;;;;5091218;28;20052;-81
2023/05/20 04:48:52;;;;;;;1.10;0.60;;;10.10;99.90;;;;;;5093067;28;20535;-82
2023/05/20 04:51:18;;;;;;;2.38;0.57;;;10.00;99.90;;;;;;5092182;28;20040;-81
2023/05/20 04:53:44;;;;;;;0.95;0.50;;;10.10;99.90;;;;;;5094307;28;20119;-83
2023/05/20 04:56:10;;;;;;;1.83;0.73;;;10.50;99.90;;;;;;5089522;28;20488;-85
2023/05/20 04:58:36;;;;;;;1.27;0.40;;;10.20;99.90;;;;;;5074909;28;20040;-80
2023/05/20 05:01:02;;;;;;;8.27;1.20;;;10.30;99.90;;;;;;5074027;28;20060;-82
2023/05/20 05:03:28;;;;;;;1.77;0.60;;;10.30;99.90;;;;;;5074234;28;20177;-83
2023/05/20 05:05:57;;;;;;;1.60;0.60;;;10.60;99.90;;;;;;5072917;28;20518;-83
2023/05/20 05:08:23;;;;;;;1.75;0.60;;;10.50;99.90;;;;;;5072754;28;20045;-81
2023/05/20 05:10:49;;;;;;;1.75;0.60;;;10.80;99.90;;;;;;5072785;28;20140;-81
2023/05/20 05:13:15;;;;;;;1.05;0.60;;;10.70;99.90;;;;;;5078919;28;20180;-82
2023/05/20 05:15:41;;;;;;;0.82;0.45;;;11.10;99.90;;;;;;5074190;28;20039;-82
2023/05/20 05:18:06;;;;;;;2.90;0.50;;;11.20;99.90;;;;;;5092718;28;20044;-82
2023/05/20 05:20:32;;;;;;;1.20;0.60;;;11.30;99.90;;;;;;5092608;28;20096;-83
2023/05/20 05:22:58;;;;;;;0.73;0.50;;;11.40;99.90;;;;;;5092965;28;20040;-84
2023/05/20 05:25:23;;;;;;;1.40;0.60;;;11.50;99.90;;;;;;5073351;28;20113;-82
2023/05/20 05:27:49;;;;;;;0.65;0.45;;;11.60;99.90;;;;;;5074186;28;20121;-82
2023/05/20 05:30:15;;;;;;;4.43;0.60;;;11.70;99.90;;;;;;5092116;28;20105;-83
2023/05/20 05:32:41;;;;;;;1.83;0.60;;;11.80;99.90;;;;;;5092534;28;20051;-82
2023/05/20 05:35:07;;;;;;;1.60;0.63;;;11.80;99.90;;;;;;5092412;28;20475;-82
2023/05/20 05:37:33;;;;;;;2.10;0.57;;;11.80;99.90;;;;;;5092591;28;20080;-83
2023/05/20 05:39:58;;;;;;;1.63;0.50;;;11.90;99.90;;;;;;5074458;28;20051;-83
2023/05/20 05:42:24;;;;;;;4.00;0.80;;;12.60;99.90;;;;;;5085713;28;20060;-83
2023/05/20 05:44:50;;;;;;;1.92;0.60;;;12.00;99.90;;;;;;5075256;28;20048;-82
2023/05/20 05:47:16;;;;;;;2.08;0.50;;;12.10;99.90;;;;;;5075801;28;20382;-82
2023/05/20 05:49:42;;;;;;;1.83;0.50;;;12.10;99.90;;;;;;5075946;28;20052;-83
2023/05/20 05:52:07;;;;;;;2.38;0.60;;;12.20;99.90;;;;;;5075921;28;20040;-83
2023/05/20 05:54:33;;;;;;;1.75;0.60;;;12.30;99.90;;;;;;5084108;28;20108;-83
2023/05/20 05:56:59;;;;;;;1.08;0.55;;;12.30;99.90;;;;;;5096307;28;20093;-82
2023/05/20 05:59:25;;;;;;;1.10;0.40;;;12.40;99.90;;;;;;5094116;28;20070;-84
2023/05/20 06:01:50;;;;;;;2.03;0.60;;;12.30;99.90;;;;;;5095995;28;20531;-82
2023/05/20 06:04:16;;;;;;;0.70;0.50;;;12.50;99.90;;;;;;5094572;28;20051;-83
2023/05/20 06:06:42;;;;;;;0.90;0.52;;;12.60;99.90;;;;;;5096150;28;20079;-86
2023/05/20 06:09:07;;;;;;;1.30;0.60;;;12.70;99.90;;;;;;5096027;28;20050;-84
2023/05/20 06:11:33;;;;;;;0.98;0.47;;;12.70;99.90;;;;;;5096059;28;20048;-82
2023/05/20 06:13:59;;;;;;;2.08;0.50;;;12.80;99.90;;;;;;5096223;28;20396;-83
2023/05/20 06:16:25;;;;;;;0.70;0.50;;;13.10;99.90;;;;;;5095830;28;20082;-82
2023/05/20 06:18:52;;;;;;;2.28;0.60;;;12.90;99.90;;;;;;5094848;28;20075;-83
2023/05/20 06:21:17;;;;;;;2.15;0.50;;;13.10;99.90;;;;;;5077590;28;20496;-81
2023/05/20 06:23:43;;;;;;;0.85;0.40;;;13.20;99.90;;;;;;5095194;28;20086;-84
2023/05/20 06:26:09;;;;;;;1.50;0.50;;;13.20;99.90;;;;;;5076971;28;20072;-83
2023/05/20 06:28:35;;;;;;;1.23;0.50;;;13.20;99.90;;;;;;5075525;28;20076;-84
2023/05/20 06:31:00;;;;;;;2.60;0.60;;;13.30;99.90;;;;;;5075591;28;20037;-84
2023/05/20 06:33:27;;;;;;;1.67;0.52;;;13.40;99.90;;;;;;5093203;28;20040;-83
2023/05/20 06:35:54;;;;;;;0.80;0.40;;;13.40;99.90;;;;;;5094928;28;20052;-83
2023/05/20 06:38:20;;;;;;;3.78;0.50;;;13.50;99.90;;;;;;5095592;28;20089;-82
2023/05/20 06:40:47;;;;;;;2.17;0.50;;;13.60;99.90;;;;;;5092770;28;20055;-82
2023/05/20 06:43:14;;;;;;;2.00;0.50;;;13.60;99.90;;;;;;5057145;28;20063;-83
2023/05/20 06:45:40;;;;;;;3.22;0.60;;;13.70;99.90;;;;;;5075153;28;20075;-83
2023/05/20 06:48:05;;;;;;;5.32;0.57;;;13.80;99.90;;;;;;5075098;28;20439;-84
2023/05/20 06:50:31;;;;;;;1.95;0.40;;;13.80;99.90;;;;;;5063776;28;20039;-84
2023/05/20 06:52:57;;;;;;;2.53;0.50;;;14.00;99.90;;;;;;5095574;28;20173;-83
2023/05/20 06:55:22;;;;;;;1.42;0.40;;;13.90;99.90;;;;;;5094528;28;20044;-81
2023/05/20 06:57:48;;;;;;;1.25;0.55;;;14.30;99.90;;;;;;5087822;28;20032;-84
2023/05/20 07:00:14;;;;;;;1.80;0.50;;;14.30;99.90;;;;;;5092706;28;20438;-84
2023/05/20 07:02:41;;;;;;;2.15;0.50;;;14.40;99.90;;;;;;5095355;28;20111;-83
2023/05/20 07:05:07;;;;;;;1.95;0.50;;;14.40;99.90;;;;;;5076700;28;20047;-83
2023/05/20 07:07:33;;;;;;;2.70;0.60;;;14.60;99.90;;;;;;5095260;28;20083;-82
2023/05/20 07:09:59;;;;;;;5.15;0.70;;;14.60;99.90;;;;;;5081830;28;20079;-85
2023/05/20 07:12:24;;;;;;;1.73;0.52;;;14.60;99.90;;;;;;5068510;28;20036;-83
2023/05/20 07:14:50;;;;;;;0.88;0.40;;;14.80;99.90;;;;;;5078718;28;20074;-84
2023/05/20 07:17:16;;;;;;;3.92;0.65;;;14.80;99.90;;;;;;5074218;28;20050;-83
2023/05/20 07:19:42;;;;;;;1.52;0.55;;;14.90;99.90;;;;;;5077130;28;20058;-84
2023/05/20 07:22:07;;;;;;;0.80;0.50;;;15.00;99.90;;;;;;5074394;28;20439;-83
2023/05/20 07:24:34;;;;;;;1.33;0.70;;;15.10;99.90;;;;;;5074453;28;20551;-88
2023/05/20 07:27:00;;;;;;;0.90;0.50;;;15.10;99.90;;;;;;5056873;28;20075;-83
2023/05/20 07:29:25;;;;;;;1.33;0.50;;;15.10;99.90;;;;;;5086272;28;20048;-84
2023/05/20 07:31:51;;;;;;;2.38;0.50;;;15.10;99.90;;;;;;5074125;28;20480;-84
2023/05/20 07:34:17;;;;;;;0.93;0.40;;;15.30;99.90;;;;;;5081336;28;20044;-84
2023/05/20 07:36:43;;;;;;;2.95;0.40;;;15.40;99.90;;;;;;5088027;28;20495;-83
2023/05/20 07:39:09;;;;;;;1.50;0.60;;;15.60;99.90;;;;;;5074245;28;20097;-83
2023/05/20 07:41:38;;;;;;;1.88;0.50;;;15.70;99.90;;;;;;5092950;28;20044;-86
2023/05/20 07:44:05;;;;;;;1.15;0.60;;;15.70;99.90;;;;;;5094171;28;20040;-82
2023/05/20 07:46:31;;;;;;;4.78;0.63;;;15.80;99.90;;;;;;5076335;28;20044;-82
2023/05/20 07:48:57;;;;;;;1.27;0.50;;;15.90;99.90;;;;;;5093910;28;20032;-83
2023/05/20 07:51:22;;;;;;;5.25;0.77;;;16.10;99.90;;;;;;5091949;28;20047;-83
2023/05/20 07:53:48;;;;;;;1.13;0.50;;;16.10;99.90;;;;;;5093396;28;20059;-84
2023/05/20 07:56:14;;;;;;;0.60;0.40;;;16.10;99.90;;;;;;5094062;28;20050;-82
2023/05/20 07:58:41;;;;;;;3.75;0.40;;;16.20;99.90;;;;;;5093817;28;20124;-84
2023/05/20 08:01:08;;;;;;;1.65;0.70;;;16.30;99.90;;;;;;5089594;28;20083;-82
2023/05/20 08:03:35;;;;;;;3.47;0.57;;;16.50;99.90;;;;;;5055330;28;20048;-82
2023/05/20 08:06:02;;;;;;;2.90;0.40;;;16.50;99.90;;;;;;5073614;28;20059;-83
2023/05/20 08:08:29;;;;;;;1.80;0.60;;;16.70;99.90;;;;;;5073608;28;20047;-84
2023/05/20 08:10:55;;;;;;;3.75;0.60;;;16.70;99.90;;;;;;5073510;28;20059;-86
2023/05/20 08:13:21;;;;;;;2.03;0.50;;;16.80;99.90;;;;;;5074272;28;20488;-83
2023/05/20 08:15:47;;;;;;;1.40;0.60;;;16.90;99.90;;;;;;5073295;28;20045;-85
2023/05/20 08:18:14;;;;;;;1.25;0.50;;;16.90;99.90;;;;;;5073118;28;20045;-85
2023/05/20 08:20:41;;;;;;;2.53;0.73;;;17.00;99.90;;;;;;5089025;28;20051;-83
2023/05/20 08:23:06;;;;;;;0.75;0.50;;;17.10;99.90;;;;;;5090247;28;20503;-81
2023/05/20 08:25:32;;;;;;;2.22;0.55;;;17.10;99.90;;;;;;5075151;28;20039;-82
2023/05/20 08:28:05;;;;;;;1.02;0.60;;;17.00;99.90;;;;;;5095042;28;20140;-83
2023/05/20 08:30:32;;;;;;;2.63;0.50;;;17.20;99.90;;;;;;5053750;28;20182;-81
2023/05/20 08:32:59;;;;;;;4.63;0.52;;;17.20;99.90;;;;;;5079443;28;20048;-81
2023/05/20 08:35:25;;;;;;;1.67;0.50;;;17.50;99.90;;;;;;5095824;28;20508;-82
2023/05/20 08:37:52;;;;;;;2.10;0.50;;;17.50;99.90;;;;;;5072447;28;20055;-80
2023/05/20 08:40:19;;;;;;;1.17;0.50;;;17.60;99.90;;;;;;5075445;28;20044;-82
2023/05/20 08:42:47;;;;;;;0.85;0.30;;;17.80;99.90;;;;;;5075081;28;20048;-84
2023/05/20 08:45:16;;;;;;;2.42;0.40;;;17.90;99.90;;;;;;5080103;28;20389;-82
2023/05/20 08:47:42;;;;;;;2.38;0.60;;;17.90;99.90;;;;;;5093829;28;20040;-82
2023/05/20 08:50:10;;;;;;;3.97;0.60;;;18.00;99.90;;;;;;5076458;28;20047;-85
2023/05/20 08:52:41;;;;;;;1.42;0.40;;;18.00;99.90;;;;;;5096415;28;20044;-83
2023/05/20 08:55:10;;;;;;;1.95;0.60;;;18.10;99.90;;;;;;5066567;28;20044;-82
2023/05/20 08:57:38;;;;;;;0.95;0.50;;;18.20;99.90;;;;;;5066570;28;20041;-84
2023/05/20 09:00:08;;;;;;;1.30;0.43;;;18.10;99.90;;;;;;5076453;28;20047;-82
2023/05/20 09:02:39;;;;;;;2.75;0.55;;;18.30;99.90;;;;;;5075581;28;20045;-86
2023/05/20 09:05:09;;;;;;;1.73;0.50;;;18.30;99.90;;;;;;5079800;28;20426;-84
2023/05/20 09:07:35;;;;;;;1.63;0.80;;;18.30;99.90;;;;;;5097303;28;20032;-87
2023/05/20 09:10:01;;;;;;;0.85;0.32;;;18.20;99.90;;;;;;5098343;28;20042;-89
2023/05/20 09:12:27;;;;;;;3.63;0.60;;;18.50;99.90;;;;;;5078509;28;20114;-82
2023/05/20 09:14:52;;;;;;;2.30;0.60;;;18.50;99.90;;;;;;5092830;28;20048;-87
2023/05/20 09:17:20;;;;;;;1.30;0.95;;;18.50;99.90;;;;;;5077718;28;20039;-86
2023/05/20 09:19:53;;;;;;;0.93;0.43;;;18.70;99.90;;;;;;5080965;28;20058;-84
2023/05/20 09:22:27;;;;;;;2.22;0.60;;;18.70;99.90;;;;;;5099406;28;20055;-81
2023/05/20 09:24:53;;;;;;;0.88;0.60;;;18.70;99.90;;;;;;5098295;28;20048;-87
2023/05/20 09:27:20;;;;;;;1.02;0.47;;;18.60;99.90;;;;;;5079187;28;20047;-88
2023/05/20 09:29:50;;;;;;;1.85;0.45;;;18.70;99.90;;;;;;5084247;28;20119;-86
2023/05/20 09:32:16;;;;;;;0.93;0.40;;;18.90;99.90;;;;;;5077233;28;20041;-86
2023/05/20 09:34:44;;;;;;;1.02;0.45;;;18.90;99.90;;;;;;5077691;28;20459;-83
2023/05/20 09:37:10;;;;;;;2.80;0.50;;;18.80;99.90;;;;;;5078128;28;20091;-86
2023/05/20 09:40:04;;;;;;;2.28;0.40;;;18.90;99.90;;;;;;5058551;28;20128;-84
2023/05/20 09:42:42;;;;;;;2.83;0.50;;;18.90;99.90;;;;;;5034013;28;20065;-83
2023/05/20 09:45:08;;;;;;;2.03;0.50;;;19.10;99.90;;;;;;5047673;28;20033;-90
2023/05/20 09:47:44;;;;;;;2.17;0.63;;;19.00;99.90;;;;;;5037844;28;20049;-90
2023/05/20 09:50:11;;;;;;;1.40;0.47;;;19.10;99.90;;;;;;5056032;28;20124;-86
2023/05/20 09:52:38;;;;;;;1.38;0.40;;;19.20;99.90;;;;;;5039933;28;20050;-93
2023/05/20 09:55:11;;;;;;;3.05;0.80;;;19.30;99.90;;;;;;5035932;28;20103;-85
2023/05/20 09:57:37;;;;;;;3.83;0.90;;;19.20;99.90;;;;;;5035282;28;20052;-88
2023/05/20 10:00:05;;;;;;;3.40;0.60;;;19.50;99.90;;;;;;5040401;28;20049;-84
2023/05/20 10:02:32;;;;;;;3.35;0.60;;;19.40;99.90;;;;;;5038558;28;20053;-91
2023/05/20 10:05:03;;;;;;;2.88;0.70;;;19.40;99.90;;;;;;5036176;28;20398;-89
2023/05/20 10:07:41;;;;;;;3.83;0.63;;;19.30;99.90;;;;;;5035581;28;20486;-86
2023/05/20 10:10:33;;;;;;;5.78;0.90;;;19.40;99.90;;;;;;5045945;28;20045;-84
2023/05/20 10:13:15;;;;;;;4.57;0.60;;;19.60;99.90;;;;;;5056050;28;20095;-88
2023/05/20 10:16:08;;;;;;;2.90;0.70;;;19.60;99.90;;;;;;5045467;28;20094;-85
2023/05/20 10:19:10;;;;;;;4.53;0.98;;;19.40;99.90;;;;;;5055011;28;20162;-85
2023/05/20 10:21:37;;;;;;;3.90;0.88;;;19.20;99.90;;;;;;5053735;28;20045;-83
2023/05/20 10:24:06;;;;;;;2.28;0.55;;;19.30;99.90;;;;;;5054214;28;20094;-83
2023/05/20 10:26:37;;;;;;;2.78;0.70;;;19.30;99.90;;;;;;5055412;28;20102;-85
2023/05/20 10:29:17;;;;;;;1.83;0.60;;;19.50;99.90;;;;;;5054295;28;20037;-81
2023/05/20 10:31:50;;;;;;;2.95;0.70;;;19.50;99.90;;;;;;5036445;28;20044;-83
2023/05/20 10:34:22;;;;;;;1.70;0.60;;;19.60;99.90;;;;;;5035423;28;20064;-82
2023/05/20 10:36:54;;;;;;;3.63;0.80;;;19.50;99.90;;;;;;5035392;28;20071;-84
2023/05/20 10:39:28;;;;;;;3.72;0.80;;;19.80;99.90;;;;;;5035406;28;20049;-84
2023/05/20 10:42:07;;;;;;;2.00;0.50;;;19.80;99.90;;;;;;5049457;28;20084;-82
2023/05/20 10:44:44;;;;;;;2.83;0.80;;;19.80;99.90;;;;;;5067752;28;20056;-82
2023/05/20 10:47:10;;;;;;;2.15;0.75;;;19.90;99.90;;;;;;5074841;28;20045;-81
2023/05/20 10:49:40;;;;;;;1.65;0.52;;;19.80;99.90;;;;;;5075098;28;20047;-81
2023/05/20 10:52:09;;;;;;;4.13;0.95;;;19.90;99.90;;;;;;5074877;28;20079;-80
2023/05/20 10:54:56;;;;;;;3.28;0.80;;;19.70;99.90;;;;;;5056794;28;20105;-81
2023/05/20 10:57:26;;;;;;;6.30;1.00;;;19.70;99.90;;;;;;5075316;28;20570;-81
2023/05/20 10:59:51;;;;;;;2.17;0.70;;;19.40;99.90;;;;;;5057476;28;20117;-83
2023/05/20 11:02:18;;;;;;;3.47;0.82;;;19.20;99.90;;;;;;5074801;28;20129;-85
2023/05/20 11:04:45;;;;;;;2.70;0.82;;;19.30;99.90;;;;;;5074346;28;20044;-89
2023/05/20 11:07:11;;;;;;;4.30;1.05;;;19.50;99.90;;;;;;5057413;28;20185;-89
2023/05/20 11:09:37;;;;;;;4.68;0.80;;;19.30;99.90;;;;;;5074828;28;20127;-86
2023/05/20 11:12:03;;;;;;;2.25;0.52;;;19.70;99.90;;;;;;5057048;28;20091;-82
2023/05/20 11:14:29;;;;;;;3.53;1.05;;;19.80;99.90;;;;;;5074115;28;20069;-89
2023/05/20 11:16:57;;;;;;;3.08;0.80;;;19.70;99.90;;;;;;5074375;28;20044;-84
2023/05/20 11:19:22;;;;;;;4.22;0.75;;;19.70;99.90;;;;;;5074313;28;20059;-88
2023/05/20 11:21:48;;;;;;;3.15;0.70;;;19.70;99.90;;;;;;5074364;28;20044;-86
2023/05/20 11:24:23;;;;;;;2.58;0.73;;;20.00;99.90;;;;;;5074203;28;20033;-85
2023/05/20 11:26:48;;;;;;;6.77;1.00;;;19.90;99.90;;;;;;5074283;28;20037;-85
2023/05/20 11:29:15;;;;;;;3.90;0.90;;;20.00;99.90;;;;;;5074359;28;20329;-89
2023/05/20 11:31:41;;;;;;;3.70;0.90;;;19.80;99.90;;;;;;5073989;28;20117;-88
2023/05/20 11:34:07;;;;;;;1.85;1.02;;;19.90;99.90;;;;;;5074405;28;20449;-86
2023/05/20 11:36:33;;;;;;;3.83;0.90;;;20.10;99.90;;;;;;5073687;28;20055;-87
2023/05/20 11:38:59;;;;;;;3.25;0.85;;;20.00;99.90;;;;;;5039528;28;20408;-87
2023/05/20 11:41:28;;;;;;;6.72;1.00;;;20.00;99.90;;;;;;5073346;28;20052;-85
2023/05/20 11:43:58;;;;;;;3.38;0.80;;;19.90;99.90;;;;;;5070785;28;20048;-84
2023/05/20 11:46:23;;;;;;;3.50;0.73;;;20.10;99.90;;;;;;5073181;28;20044;-87
2023/05/20 11:48:56;;;;;;;2.13;0.90;;;20.20;99.90;;;;;;5055698;28;20051;-87
2023/05/20 11:51:24;;;;;;;4.38;1.10;;;20.30;99.90;;;;;;5073901;28;20040;-85
2023/05/20 11:53:50;;;;;;;2.40;0.73;;;20.50;99.90;;;;;;5073952;28;20045;-86
2023/05/20 11:56:15;;;;;;;2.17;0.90;;;20.40;99.90;;;;;;5073803;28;20127;-86
2023/05/20 11:58:43;;;;;;;6.00;0.88;;;20.50;99.90;;;;;;5055387;28;20049;-85
2023/05/20 12:01:09;;;;;;;1.77;0.70;;;20.60;99.90;;;;;;5073354;28;20040;-84
2023/05/20 12:03:36;;;;;;;3.60;0.85;;;20.60;99.90;;;;;;5058090;28;20040;-86
2023/05/20 12:06:02;;;;;;;6.00;2.42;;;20.50;99.90;;;;;;5078771;28;20044;-85
2023/05/20 12:08:28;;;;;;;2.28;0.70;;;20.40;99.90;;;;;;5058482;28;20052;-85
2023/05/20 12:10:53;;;;;;;4.90;0.80;;;20.60;99.90;;;;;;5074787;28;20397;-81
2023/05/20 12:13:20;;;;;;;3.40;1.08;;;20.80;99.90;;;;;;5075667;28;20045;-82
2023/05/20 12:15:45;;;;;;;2.33;1.00;;;20.60;99.90;;;;;;5075876;28;20048;-80
2023/05/20 12:18:11;;;;;;;1.60;0.70;;;20.60;99.90;;;;;;5075335;28;20044;-86
2023/05/20 12:20:38;;;;;;;2.42;0.95;;;20.70;99.90;;;;;;5075460;28;20048;-85
2023/05/20 12:23:04;;;;;;;3.97;1.40;;;20.80;99.90;;;;;;5055238;28;20051;-85
2023/05/20 12:25:29;;;;;;;5.07;1.13;;;20.90;99.90;;;;;;5073384;28;20424;-88
2023/05/20 12:27:55;;;;;;;2.70;1.00;;;21.00;99.90;;;;;;5073056;28;20091;-87
2023/05/20 12:30:22;;;;;;;3.95;0.80;;;20.90;99.90;;;;;;5054020;28;20048;-86
2023/05/20 12:32:49;;;;;;;2.70;1.02;;;21.20;99.90;;;;;;5072564;28;20047;-83
2023/05/20 12:35:15;;;;;;;3.75;0.90;;;21.20;99.90;;;;;;5073138;28;20098;-86
2023/05/20 12:37:42;;;;;;;4.65;1.00;;;21.30;99.90;;;;;;5073080;28;20072;-87
2023/05/20 12:40:10;;;;;;;2.70;0.80;;;21.20;99.90;;;;;;5054793;28;20041;-87
2023/05/20 12:42:37;;;;;;;4.30;1.35;;;21.20;99.90;;;;;;5072514;28;20053;-90
2023/05/20 12:45:04;;;;;;;5.00;1.13;;;20.90;99.90;;;;;;5072834;28;20271;-84
2023/05/20 12:47:31;;;;;;;2.33;0.98;;;20.30;99.90;;;;;;5073084;28;20500;-90
2023/05/20 12:49:57;;;;;;;2.78;1.20;;;19.80;99.90;;;;;;5072611;28;20173;-89